sim
Sign-in with your pilot id or email,
or register
Callsign
Passwort

Schedule Details

Flight Number: OEF9052
Departure: Nairobi Jomo Kenyatta International Airport (HKJK) at 22:00
Arrival: Munich Airport (EDDM) at 05:35

Weather Information
Getting current METAR information for HKJK 190500Z 21004KT 9999 BKN019 16/15 Q1024 NOSIG
Getting current METAR information for EDDM 190550Z VRB01KT CAVOK 05/04 Q1020 NOSIG

Schedule Frequency

Route Map